Terminal Aerodrome Forecast
Issued by NWS La Crosse, WI

Home | Current Version | Previous Version | Text Only | Print | Product List | Glossary On
Versions: 1 2 3 4 5 6 7 8 9 10 11 12 13 14 15 16 17 18 19 20 21 22 23 24 25 26 27
000
FTUS43 KARX 030520
TAFRST
TAF
KRST 030520Z 0306/0406 19010KT P6SM SCT060
     FM031100 19012KT P6SM BKN250
     FM031400 20014G22KT P6SM BKN250
     FM031900 23017G26KT P6SM SCT060 SCT250
     FM040000 29010KT P6SM -RA VCTS BKN040CB
      TEMPO 0400/0402 33025G35KT 1SM +TSRA OVC008CB
     FM040300 35009KT P6SM BKN040=

USA.gov is the U.S. government's official web portal to all federal, state and local government web resources and services.